Time;durP1;ratioP1;P1;durP2;ratioP2;P2;SDS_P1;SDS_P2;PMS_P1;PMS_P2;Temp;Humidity;BMP_temperature;BMP_pressure;BME280_temperature;BME280_humidity;BME280_pressure;Samples;Min_cycle;Max_cycle;Signal;HPM_P1;HPM_P2
2021/05/17 00:00:28;;;;;;;5.45;4.97;;;15.60;99.90;;;;;;5075542;28;20028;-76
2021/05/17 00:02:56;;;;;;;4.57;4.20;;;15.50;99.90;;;;;;5093549;28;20058;-76
2021/05/17 00:05:22;;;;;;;7.43;5.18;;;15.60;99.90;;;;;;5075739;28;20073;-76
2021/05/17 00:07:48;;;;;;;5.50;4.82;;;15.50;99.90;;;;;;5093993;28;20093;-75
2021/05/17 00:10:14;;;;;;;6.82;5.47;;;15.50;99.90;;;;;;5088869;28;20463;-76
2021/05/17 00:12:41;;;;;;;7.88;5.15;;;15.50;99.90;;;;;;5073371;28;20028;-76
2021/05/17 00:15:10;;;;;;;6.60;5.00;;;15.50;99.90;;;;;;5072892;28;20108;-76
2021/05/17 00:17:37;;;;;;;5.50;4.63;;;15.50;99.90;;;;;;5072914;28;20103;-76
2021/05/17 00:20:05;;;;;;;6.22;4.97;;;15.50;99.90;;;;;;5072709;28;20019;-76
2021/05/17 00:22:31;;;;;;;4.55;4.20;;;15.50;99.90;;;;;;5072605;28;20021;-76
2021/05/17 00:24:57;;;;;;;0.95;0.88;;;15.40;99.90;;;;;;5072673;28;20467;-76
2021/05/17 00:27:23;;;;;;;3.28;1.25;;;15.40;99.90;;;;;;5072607;28;20021;-75
2021/05/17 00:29:49;;;;;;;5.35;1.95;;;15.40;99.90;;;;;;5072527;28;20025;-76
2021/05/17 00:32:15;;;;;;;3.92;1.63;;;15.30;99.90;;;;;;5054723;28;20032;-77
2021/05/17 00:34:41;;;;;;;0.80;0.50;;;15.00;99.90;;;;;;5072217;28;20389;-78
2021/05/17 00:37:07;;;;;;;0.88;0.50;;;14.90;99.90;;;;;;5071472;28;20060;-77
2021/05/17 00:39:34;;;;;;;4.07;1.20;;;14.80;99.90;;;;;;5054612;28;20056;-78
2021/05/17 00:42:00;;;;;;;7.57;1.00;;;14.60;99.90;;;;;;5054414;28;20021;-78
2021/05/17 00:44:27;;;;;;;3.00;0.55;;;14.50;99.90;;;;;;5072030;28;20031;-78
2021/05/17 00:46:54;;;;;;;1.10;0.40;;;14.50;99.90;;;;;;5054318;28;20012;-77
2021/05/17 00:49:20;;;;;;;0.20;0.20;;;14.40;99.90;;;;;;5072351;28;20081;-77
2021/05/17 00:51:46;;;;;;;0.20;0.20;;;14.40;99.90;;;;;;5054140;28;20413;-77
2021/05/17 00:54:12;;;;;;;1.08;0.40;;;14.50;99.90;;;;;;5072074;28;20121;-77
2021/05/17 00:56:38;;;;;;;0.55;0.38;;;14.40;99.90;;;;;;5071902;28;20082;-77
2021/05/17 00:59:04;;;;;;;1.05;0.38;;;14.40;99.90;;;;;;5071930;28;20032;-77
2021/05/17 01:01:30;;;;;;;0.20;0.20;;;14.30;99.90;;;;;;5053998;28;20017;-77
2021/05/17 01:03:56;;;;;;;0.20;0.20;;;14.30;99.90;;;;;;5071967;28;20027;-77
2021/05/17 01:06:22;;;;;;;0.30;0.30;;;14.30;99.90;;;;;;5053791;28;20024;-77
2021/05/17 01:09:06;;;;;;;0.45;0.30;;;14.30;99.90;;;;;;5072171;28;20145;-77
2021/05/17 01:11:33;;;;;;;0.30;0.30;;;14.30;99.90;;;;;;5053834;28;20035;-77
2021/05/17 01:14:03;;;;;;;0.32;0.32;;;14.10;99.90;;;;;;5053587;28;20025;-76
2021/05/17 01:16:31;;;;;;;0.82;0.40;;;14.10;99.90;;;;;;5053598;28;20028;-76
2021/05/17 01:18:58;;;;;;;6.53;0.60;;;14.00;99.90;;;;;;5071650;28;20123;-76
2021/05/17 01:21:28;;;;;;;5.50;0.50;;;14.00;99.90;;;;;;5053710;28;20028;-77
2021/05/17 01:23:57;;;;;;;2.65;0.50;;;13.90;99.90;;;;;;5071699;28;20016;-77
2021/05/17 01:26:28;;;;;;;2.75;1.02;;;13.90;99.90;;;;;;5053724;28;20024;-77
2021/05/17 01:29:00;;;;;;;0.40;0.40;;;13.90;99.90;;;;;;5071794;28;20021;-77
2021/05/17 01:31:26;;;;;;;1.58;0.70;;;13.90;99.90;;;;;;5071707;28;20025;-77
2021/05/17 01:33:52;;;;;;;1.63;0.60;;;13.90;99.90;;;;;;5071400;28;20035;-77
2021/05/17 01:36:20;;;;;;;7.40;0.70;;;13.90;99.90;;;;;;5071197;28;20072;-77
2021/05/17 01:38:50;;;;;;;3.03;0.65;;;13.90;99.90;;;;;;5071541;28;20031;-77
2021/05/17 01:41:18;;;;;;;0.82;0.50;;;13.90;99.90;;;;;;5071643;28;20382;-76
2021/05/17 01:43:51;;;;;;;0.82;0.77;;;13.90;99.90;;;;;;5071502;28;20462;-77
2021/05/17 01:46:21;;;;;;;2.08;0.65;;;13.80;99.90;;;;;;5071574;28;20510;-77
2021/05/17 01:48:47;;;;;;;2.60;0.80;;;13.80;99.90;;;;;;5071110;28;20028;-77
2021/05/17 01:51:16;;;;;;;5.65;0.77;;;13.80;99.90;;;;;;5071384;28;20509;-77
2021/05/17 01:53:44;;;;;;;0.70;0.70;;;13.80;99.90;;;;;;5073018;28;20032;-77
2021/05/17 01:56:11;;;;;;;5.35;1.05;;;13.80;99.90;;;;;;5073201;28;20144;-77
2021/05/17 01:58:38;;;;;;;1.08;0.98;;;13.80;99.90;;;;;;5091540;28;20132;-77
2021/05/17 02:01:12;;;;;;;2.65;0.90;;;13.80;99.90;;;;;;5091406;28;20048;-77
2021/05/17 02:03:40;;;;;;;2.40;1.05;;;13.70;99.90;;;;;;5091324;28;20538;-77
2021/05/17 02:06:07;;;;;;;1.00;1.00;;;13.70;99.90;;;;;;5073158;28;20081;-77
2021/05/17 02:08:33;;;;;;;0.82;0.82;;;13.70;99.90;;;;;;5091487;28;20101;-76
2021/05/17 02:11:01;;;;;;;0.82;0.70;;;13.70;99.90;;;;;;5062206;28;20119;-77
2021/05/17 02:13:28;;;;;;;1.77;0.63;;;13.70;99.90;;;;;;5071263;28;20047;-77
2021/05/17 02:15:54;;;;;;;2.10;0.98;;;13.70;99.90;;;;;;5070690;28;20033;-77
2021/05/17 02:18:21;;;;;;;4.78;0.73;;;13.70;99.90;;;;;;5071038;28;20031;-77
2021/05/17 02:20:47;;;;;;;2.08;0.82;;;13.70;99.90;;;;;;5071217;28;20025;-77
2021/05/17 02:23:15;;;;;;;1.02;0.90;;;13.70;99.90;;;;;;5071126;28;20024;-77
2021/05/17 02:25:43;;;;;;;0.70;0.70;;;13.70;99.90;;;;;;5070771;28;20109;-77
2021/05/17 02:28:09;;;;;;;4.88;0.80;;;13.70;99.90;;;;;;5052985;28;20077;-77
2021/05/17 02:30:36;;;;;;;1.77;0.80;;;13.60;99.90;;;;;;5070991;28;20017;-77
2021/05/17 02:33:03;;;;;;;6.72;0.82;;;13.60;99.90;;;;;;5053018;28;20082;-77
2021/05/17 02:35:29;;;;;;;2.47;0.90;;;13.60;99.90;;;;;;5052467;28;20060;-77
2021/05/17 02:37:54;;;;;;;1.95;0.82;;;13.60;99.90;;;;;;5071073;28;20029;-77
2021/05/17 02:40:21;;;;;;;0.75;0.60;;;13.50;99.90;;;;;;5070775;28;20016;-77
2021/05/17 02:42:48;;;;;;;3.08;1.33;;;13.50;99.90;;;;;;5070917;28;20025;-77
2021/05/17 02:45:16;;;;;;;2.15;1.40;;;13.50;99.90;;;;;;5070798;28;20074;-77
2021/05/17 02:47:43;;;;;;;0.70;0.70;;;13.30;99.90;;;;;;5070761;28;20025;-77
2021/05/17 02:50:11;;;;;;;1.88;1.30;;;13.30;99.90;;;;;;5070796;28;20031;-77
2021/05/17 02:52:38;;;;;;;2.13;0.47;;;13.30;99.90;;;;;;5052723;28;20430;-77
2021/05/17 02:55:10;;;;;;;0.90;0.70;;;13.20;99.90;;;;;;5070740;28;20017;-77
2021/05/17 02:57:48;;;;;;;0.93;0.90;;;13.20;99.90;;;;;;5052673;28;20031;-76
2021/05/17 03:00:14;;;;;;;0.50;0.50;;;13.30;99.90;;;;;;5072576;28;20443;-77
2021/05/17 03:03:12;;;;;;;0.38;0.38;;;13.30;99.90;;;;;;5074158;28;20025;-77
2021/05/17 03:05:40;;;;;;;3.42;0.50;;;13.40;99.90;;;;;;5074148;28;20477;-77
2021/05/17 03:08:08;;;;;;;1.00;0.40;;;13.40;99.90;;;;;;5074149;28;20417;-77
2021/05/17 03:10:38;;;;;;;1.08;0.47;;;13.40;99.90;;;;;;5074077;28;20025;-77
2021/05/17 03:13:13;;;;;;;1.38;0.40;;;13.30;99.90;;;;;;5056097;28;20039;-77
2021/05/17 03:15:40;;;;;;;1.92;0.50;;;13.30;99.90;;;;;;5074023;28;20055;-77
2021/05/17 03:18:07;;;;;;;0.60;0.35;;;13.30;99.90;;;;;;5073919;28;20020;-76
2021/05/17 03:20:33;;;;;;;0.40;0.40;;;13.30;99.90;;;;;;5055869;28;20108;-77
2021/05/17 03:22:59;;;;;;;0.38;0.38;;;13.40;99.90;;;;;;5056090;28;20036;-76
2021/05/17 03:25:30;;;;;;;1.38;0.32;;;13.30;99.90;;;;;;5073682;28;20535;-77
2021/05/17 03:27:56;;;;;;;0.40;0.40;;;13.30;99.90;;;;;;5073799;28;20049;-77
2021/05/17 03:30:22;;;;;;;0.47;0.47;;;13.30;99.90;;;;;;5055784;28;20138;-77
2021/05/17 03:32:48;;;;;;;0.40;0.40;;;13.30;99.90;;;;;;5073893;28;20017;-77
2021/05/17 03:35:14;;;;;;;0.35;0.35;;;13.30;99.90;;;;;;5073212;28;20052;-77
2021/05/17 03:37:40;;;;;;;2.90;0.40;;;13.30;99.90;;;;;;5073540;28;20108;-77
2021/05/17 03:40:07;;;;;;;1.20;0.38;;;13.20;99.90;;;;;;5077231;28;20128;-77
2021/05/17 03:42:33;;;;;;;0.30;0.30;;;13.20;99.90;;;;;;5093797;28;20028;-77
2021/05/17 03:44:58;;;;;;;3.95;0.40;;;13.20;99.90;;;;;;5075254;28;20115;-77
2021/05/17 03:47:24;;;;;;;1.58;0.40;;;12.90;99.90;;;;;;5093732;28;20375;-77
2021/05/17 03:49:50;;;;;;;0.40;0.40;;;12.90;99.90;;;;;;5093472;28;20024;-77
2021/05/17 03:52:16;;;;;;;0.38;0.38;;;12.90;99.90;;;;;;5093537;28;20028;-77
2021/05/17 03:54:42;;;;;;;0.40;0.40;;;12.90;99.90;;;;;;5093134;28;20143;-77
2021/05/17 03:57:07;;;;;;;0.60;0.50;;;13.00;99.90;;;;;;5093232;28;20054;-77
2021/05/17 03:59:35;;;;;;;0.60;0.60;;;13.00;99.90;;;;;;5093320;28;20027;-77
2021/05/17 04:02:00;;;;;;;0.43;0.30;;;13.00;99.90;;;;;;5093507;28;20020;-77
2021/05/17 04:04:28;;;;;;;0.32;0.32;;;13.00;99.90;;;;;;5093137;28;20032;-77
2021/05/17 04:14:51;;;;;;;0.30;0.30;;;13.10;99.90;;;;;;5072814;28;20082;-77
2021/05/17 04:17:17;;;;;;;0.40;0.40;;;13.20;99.90;;;;;;5054593;28;20044;-77
2021/05/17 04:19:42;;;;;;;0.52;0.52;;;13.20;99.90;;;;;;5072954;28;20074;-77
2021/05/17 04:22:08;;;;;;;0.30;0.30;;;13.20;99.90;;;;;;5072670;28;20016;-77
2021/05/17 04:24:34;;;;;;;0.63;0.60;;;13.20;99.90;;;;;;5072744;28;20063;-77
2021/05/17 04:27:00;;;;;;;0.63;0.38;;;13.20;99.90;;;;;;5072737;28;20070;-77
2021/05/17 04:29:26;;;;;;;0.57;0.32;;;13.30;99.90;;;;;;5072601;28;20184;-77
2021/05/17 04:31:52;;;;;;;0.20;0.20;;;13.30;99.90;;;;;;5054661;28;20486;-77
2021/05/17 04:34:19;;;;;;;0.38;0.30;;;13.30;99.90;;;;;;5072515;28;20035;-77
2021/05/17 04:36:44;;;;;;;0.65;0.50;;;13.40;99.90;;;;;;5072362;28;20064;-77
2021/05/17 04:39:10;;;;;;;0.30;0.30;;;13.40;99.90;;;;;;5072328;28;20478;-77
2021/05/17 04:41:36;;;;;;;0.95;0.40;;;13.40;99.90;;;;;;5070503;28;20072;-77
2021/05/17 04:44:02;;;;;;;0.40;0.40;;;13.40;99.90;;;;;;5092377;28;20166;-77
2021/05/17 04:46:28;;;;;;;1.00;0.52;;;13.40;99.90;;;;;;5092621;28;20024;-77
2021/05/17 04:48:53;;;;;;;0.30;0.30;;;13.40;99.90;;;;;;5074443;28;20028;-77
2021/05/17 04:51:21;;;;;;;0.20;0.20;;;13.40;99.90;;;;;;5074330;28;20041;-77
2021/05/17 04:53:48;;;;;;;1.15;0.35;;;13.40;99.90;;;;;;5092493;28;20024;-77
2021/05/17 04:56:14;;;;;;;0.20;0.20;;;13.50;99.90;;;;;;5090963;28;20032;-77
2021/05/17 04:58:40;;;;;;;1.75;0.30;;;13.50;99.90;;;;;;5074541;28;20504;-77
2021/05/17 05:01:06;;;;;;;0.10;0.10;;;13.50;99.90;;;;;;5082684;28;20020;-77
2021/05/17 05:03:31;;;;;;;0.30;0.30;;;13.60;99.90;;;;;;5099306;28;20470;-77
2021/05/17 05:05:58;;;;;;;0.30;0.30;;;13.70;99.90;;;;;;5073912;28;20028;-77
2021/05/17 05:08:24;;;;;;;0.15;0.13;;;13.80;99.90;;;;;;5092293;28;20037;-77
2021/05/17 05:10:50;;;;;;;0.28;0.28;;;13.80;99.90;;;;;;5092217;28;20031;-77
2021/05/17 05:13:16;;;;;;;0.75;0.20;;;13.80;99.90;;;;;;5073911;28;20043;-77
2021/05/17 05:15:42;;;;;;;0.28;0.10;;;13.80;99.90;;;;;;5092054;28;20028;-77
2021/05/17 05:18:07;;;;;;;0.25;0.25;;;13.90;99.90;;;;;;5091898;28;20416;-77
2021/05/17 05:20:33;;;;;;;0.30;0.30;;;14.00;99.90;;;;;;5068375;28;20013;-77
2021/05/17 05:23:01;;;;;;;0.75;0.35;;;14.00;99.90;;;;;;5072663;28;20021;-78
2021/05/17 05:33:42;;;;;;;0.20;0.20;;;14.20;99.90;;;;;;5071188;28;20405;-77
2021/05/17 05:36:07;;;;;;;0.30;0.30;;;14.20;99.90;;;;;;5070650;28;20127;-77
2021/05/17 05:38:33;;;;;;;0.17;0.17;;;14.20;99.90;;;;;;5071312;28;20016;-77
2021/05/17 05:40:59;;;;;;;2.10;0.30;;;14.30;99.90;;;;;;5082565;28;20024;-77
2021/05/17 05:43:25;;;;;;;0.25;0.25;;;14.30;99.90;;;;;;5073417;28;20024;-77
2021/05/17 05:45:51;;;;;;;0.20;0.20;;;14.30;99.90;;;;;;5073609;28;20024;-77
2021/05/17 05:48:17;;;;;;;1.45;0.30;;;14.30;99.90;;;;;;5091544;28;20024;-77
2021/05/17 05:50:46;;;;;;;0.10;0.10;;;14.30;99.90;;;;;;5091473;28;20059;-77
2021/05/17 05:53:12;;;;;;;0.10;0.10;;;14.40;99.90;;;;;;5073378;28;20486;-77
2021/05/17 05:55:38;;;;;;;1.45;0.20;;;14.50;99.90;;;;;;5073659;28;20071;-77
2021/05/17 05:58:03;;;;;;;0.10;0.10;;;14.50;99.90;;;;;;5091951;28;20020;-77
2021/05/17 06:00:30;;;;;;;0.10;0.10;;;14.50;99.90;;;;;;5092180;28;20102;-77
2021/05/17 06:03:00;;;;;;;0.10;0.10;;;14.60;99.90;;;;;;5074579;28;20030;-77
2021/05/17 06:05:26;;;;;;;0.10;0.10;;;14.70;99.90;;;;;;5092507;28;20486;-77
2021/05/17 06:07:52;;;;;;;0.10;0.10;;;14.70;99.90;;;;;;5074687;28;20058;-77
2021/05/17 06:10:18;;;;;;;0.20;0.20;;;14.80;99.90;;;;;;5073635;28;20371;-77
2021/05/17 06:12:48;;;;;;;0.55;0.10;;;14.80;99.90;;;;;;5073449;28;20119;-77
2021/05/17 06:15:16;;;;;;;0.10;0.10;;;14.80;99.90;;;;;;5074144;28;20035;-77
2021/05/17 06:17:42;;;;;;;2.00;0.13;;;14.90;99.90;;;;;;5092634;28;20082;-77
2021/05/17 06:20:09;;;;;;;0.10;0.10;;;14.90;99.90;;;;;;5091629;28;20020;-77
2021/05/17 06:22:37;;;;;;;0.20;0.20;;;15.00;99.90;;;;;;5091267;28;20017;-77
2021/05/17 06:25:11;;;;;;;0.30;0.10;;;15.10;99.90;;;;;;5091368;28;20039;-77
2021/05/17 06:27:38;;;;;;;0.10;0.10;;;15.10;99.90;;;;;;5091378;28;20049;-77
2021/05/17 06:30:07;;;;;;;1.27;0.10;;;15.20;99.90;;;;;;5091080;28;20048;-77
2021/05/17 06:32:35;;;;;;;0.10;0.10;;;15.20;99.90;;;;;;5073283;28;20036;-77
2021/05/17 06:35:01;;;;;;;0.10;0.10;;;15.30;99.90;;;;;;5092659;28;20486;-77
2021/05/17 06:37:27;;;;;;;0.17;0.17;;;15.40;99.90;;;;;;5095111;28;20020;-77
2021/05/17 06:39:53;;;;;;;0.10;0.10;;;15.40;99.90;;;;;;5076854;28;20020;-77
2021/05/17 06:42:19;;;;;;;0.10;0.10;;;15.50;99.90;;;;;;5094972;28;20020;-77
2021/05/17 06:44:45;;;;;;;0.98;0.10;;;15.60;99.90;;;;;;5094843;28;20024;-77
2021/05/17 06:47:11;;;;;;;0.10;0.10;;;15.70;99.90;;;;;;5094903;28;20027;-77
2021/05/17 06:49:38;;;;;;;3.30;0.10;;;15.70;99.90;;;;;;5095020;28;20634;-77
2021/05/17 06:52:06;;;;;;;0.10;0.10;;;15.70;99.90;;;;;;5094863;28;20031;-77
2021/05/17 06:54:32;;;;;;;0.10;0.10;;;15.80;99.90;;;;;;5094777;28;20028;-77
2021/05/17 06:57:11;;;;;;;0.10;0.10;;;15.90;99.90;;;;;;5094509;28;20024;-77
2021/05/17 06:59:45;;;;;;;0.10;0.10;;;16.00;99.90;;;;;;5076609;28;20028;-76
2021/05/17 07:02:20;;;;;;;0.10;0.10;;;16.00;99.90;;;;;;5094611;28;20196;-76
2021/05/17 07:04:46;;;;;;;0.32;0.30;;;16.00;99.90;;;;;;5094415;28;20020;-76
2021/05/17 07:07:16;;;;;;;0.65;0.20;;;16.10;99.90;;;;;;5095706;28;20036;-76
2021/05/17 07:12:26;;;;;;;0.35;0.20;;;16.20;99.90;;;;;;5095942;28;20036;-76
2021/05/17 07:14:52;;;;;;;0.20;0.10;;;16.30;99.00;;;;;;5095091;28;20028;-76
2021/05/17 07:17:18;;;;;;;1.00;0.20;;;16.40;99.90;;;;;;5095485;28;20055;-77
2021/05/17 07:19:44;;;;;;;0.20;0.13;;;16.40;99.90;;;;;;5095182;28;20027;-77
2021/05/17 07:24:54;;;;;;;0.20;0.20;;;16.50;99.90;;;;;;5095471;28;20544;-76
2021/05/17 07:27:20;;;;;;;0.10;0.10;;;16.50;99.90;;;;;;5077297;28;20028;-76
2021/05/17 07:29:46;;;;;;;1.30;0.30;;;16.60;99.90;;;;;;5076901;28;20024;-76
2021/05/17 07:32:12;;;;;;;1.55;0.13;;;16.60;99.90;;;;;;5094535;28;20032;-76
2021/05/17 07:34:38;;;;;;;0.10;0.10;;;16.60;99.90;;;;;;5075883;28;20478;-77
2021/05/17 07:37:07;;;;;;;0.10;0.10;;;16.70;98.70;;;;;;5075893;28;20453;-77
2021/05/17 07:39:34;;;;;;;0.10;0.10;;;16.70;98.70;;;;;;5076051;28;20023;-76
2021/05/17 07:42:00;;;;;;;0.10;0.10;;;16.80;98.70;;;;;;5094321;28;20055;-77
2021/05/17 07:44:26;;;;;;;1.85;0.20;;;16.90;99.90;;;;;;5094041;28;20099;-76
2021/05/17 07:46:51;;;;;;;0.20;0.20;;;17.00;99.50;;;;;;5075346;28;20554;-76
2021/05/17 07:49:34;;;;;;;0.10;0.10;;;17.00;99.00;;;;;;5069892;28;20108;-76
2021/05/17 07:52:00;;;;;;;0.20;0.20;;;17.00;99.50;;;;;;5090066;28;20421;-76
2021/05/17 07:54:26;;;;;;;0.35;0.30;;;16.90;99.90;;;;;;5088902;28;20032;-76
2021/05/17 07:56:52;;;;;;;0.10;0.10;;;17.00;99.90;;;;;;5071462;28;20055;-76
2021/05/17 07:59:19;;;;;;;0.32;0.25;;;17.00;99.40;;;;;;5089565;28;20305;-76
2021/05/17 08:01:45;;;;;;;1.23;0.30;;;17.00;99.90;;;;;;5070848;28;20020;-76
2021/05/17 08:04:11;;;;;;;0.20;0.20;;;17.00;99.90;;;;;;5071175;28;20035;-76
2021/05/17 08:06:37;;;;;;;0.25;0.25;;;17.10;99.90;;;;;;5088903;28;20658;-76
2021/05/17 08:09:03;;;;;;;1.30;0.40;;;17.20;99.90;;;;;;5089032;28;20119;-76
2021/05/17 08:11:29;;;;;;;0.20;0.20;;;17.20;99.90;;;;;;5090076;28;20024;-76
2021/05/17 08:13:55;;;;;;;0.32;0.32;;;17.20;99.90;;;;;;5088720;28;20477;-76
2021/05/17 08:16:22;;;;;;;0.20;0.20;;;17.30;99.90;;;;;;5071048;28;20024;-76
2021/05/17 08:18:49;;;;;;;0.17;0.17;;;17.40;99.90;;;;;;5071122;28;20393;-76
2021/05/17 08:21:15;;;;;;;1.30;0.22;;;17.50;99.90;;;;;;5070444;28;20097;-76
2021/05/17 08:23:40;;;;;;;0.20;0.20;;;17.50;99.90;;;;;;5089260;28;20031;-76
2021/05/17 08:26:07;;;;;;;0.20;0.20;;;17.50;99.90;;;;;;5088649;28;20024;-76
2021/05/17 08:28:36;;;;;;;0.20;0.20;;;17.50;99.90;;;;;;5070426;28;20662;-76
2021/05/17 08:31:03;;;;;;;1.10;0.22;;;17.50;99.90;;;;;;5070779;28;20515;-76
2021/05/17 08:33:30;;;;;;;6.82;1.00;;;17.50;99.90;;;;;;5070080;28;20462;-76
2021/05/17 08:35:56;;;;;;;0.20;0.20;;;17.50;99.90;;;;;;5088235;28;20040;-76
2021/05/17 08:38:22;;;;;;;0.28;0.28;;;17.60;99.90;;;;;;5089166;28;20082;-76
2021/05/17 08:40:48;;;;;;;0.20;0.20;;;17.60;99.90;;;;;;5070189;28;20024;-76
2021/05/17 08:43:14;;;;;;;0.28;0.20;;;17.70;99.90;;;;;;5088210;28;20028;-76
2021/05/17 08:45:40;;;;;;;0.35;0.30;;;17.70;99.90;;;;;;5088405;28;20020;-76
2021/05/17 08:48:07;;;;;;;0.20;0.20;;;17.90;99.90;;;;;;5069909;28;20074;-76
2021/05/17 08:50:33;;;;;;;0.63;0.30;;;18.00;99.90;;;;;;5088571;28;20031;-76
2021/05/17 08:53:00;;;;;;;0.82;0.20;;;18.00;99.90;;;;;;5087596;28;20545;-76
2021/05/17 08:55:26;;;;;;;0.20;0.20;;;18.20;99.90;;;;;;5069093;28;20028;-76
2021/05/17 08:57:53;;;;;;;0.20;0.20;;;18.20;99.90;;;;;;5087643;28;20107;-76
2021/05/17 09:00:20;;;;;;;1.27;0.30;;;18.30;99.90;;;;;;5087851;28;20008;-76
2021/05/17 09:02:46;;;;;;;0.20;0.20;;;18.20;99.90;;;;;;5070020;28;20016;-76
2021/05/17 09:05:18;;;;;;;0.47;0.35;;;18.10;99.90;;;;;;5084121;28;20024;-76
2021/05/17 09:07:50;;;;;;;0.20;0.20;;;18.20;99.90;;;;;;5087553;28;20020;-77
2021/05/17 09:10:37;;;;;;;0.20;0.20;;;18.20;99.90;;;;;;5082171;28;20021;-76
2021/05/17 09:13:09;;;;;;;0.25;0.25;;;18.30;99.90;;;;;;5085550;28;20401;-76
2021/05/17 09:15:52;;;;;;;0.80;0.30;;;18.20;99.90;;;;;;5085138;28;20424;-76
2021/05/17 09:18:22;;;;;;;0.20;0.20;;;18.20;99.90;;;;;;5084995;28;20020;-76
2021/05/17 09:20:50;;;;;;;0.55;0.45;;;18.20;99.90;;;;;;5069683;28;20085;-76
2021/05/17 09:23:19;;;;;;;1.65;0.20;;;18.20;99.90;;;;;;5087366;28;20605;-76
2021/05/17 09:26:03;;;;;;;0.20;0.20;;;18.40;99.90;;;;;;5086746;28;20477;-76
2021/05/17 09:28:44;;;;;;;0.47;0.28;;;18.40;99.90;;;;;;5086668;28;20096;-76
2021/05/17 09:31:12;;;;;;;0.40;0.40;;;18.40;99.90;;;;;;5087818;28;20016;-76
2021/05/17 09:33:43;;;;;;;1.90;0.30;;;18.50;99.90;;;;;;5068983;28;20027;-76
2021/05/17 09:36:24;;;;;;;0.20;0.20;;;18.60;99.90;;;;;;5086706;28;20033;-76
2021/05/17 09:39:00;;;;;;;2.22;0.30;;;18.50;99.90;;;;;;5066373;28;20049;-76
2021/05/17 09:41:46;;;;;;;0.93;0.32;;;18.70;99.90;;;;;;5054395;28;20044;-76
2021/05/17 09:44:14;;;;;;;0.88;0.45;;;18.90;99.90;;;;;;5067222;28;20074;-76
2021/05/17 09:47:19;;;;;;;2.47;0.50;;;18.90;99.90;;;;;;5048828;28;20363;-76
2021/05/17 09:49:46;;;;;;;0.30;0.30;;;19.00;99.90;;;;;;5078084;28;20054;-78
2021/05/17 09:52:12;;;;;;;1.63;0.57;;;19.10;99.90;;;;;;5086618;28;20035;-77
2021/05/17 09:55:05;;;;;;;1.98;0.50;;;19.20;99.90;;;;;;5066202;28;20035;-77
2021/05/17 09:57:33;;;;;;;2.40;0.30;;;19.20;99.90;;;;;;5067058;28;20028;-77
2021/05/17 10:00:28;;;;;;;0.40;0.40;;;19.30;99.80;;;;;;5049274;28;20054;-76
2021/05/17 10:02:55;;;;;;;0.73;0.30;;;19.30;99.90;;;;;;5067606;28;20070;-78
2021/05/17 10:05:25;;;;;;;0.63;0.43;;;19.20;99.90;;;;;;5066675;28;20032;-76
2021/05/17 10:07:59;;;;;;;0.30;0.30;;;19.10;99.90;;;;;;5086774;28;20043;-77
2021/05/17 10:10:28;;;;;;;6.10;0.60;;;19.20;99.90;;;;;;5091257;28;20028;-77
2021/05/17 10:12:56;;;;;;;0.65;0.60;;;19.30;99.90;;;;;;5091802;28;20024;-76
2021/05/17 10:15:25;;;;;;;0.65;0.65;;;19.30;99.90;;;;;;5072815;28;20039;-77
2021/05/17 10:17:51;;;;;;;1.67;0.70;;;19.50;99.90;;;;;;5071805;28;20492;-78
2021/05/17 10:20:21;;;;;;;3.75;0.73;;;19.70;99.90;;;;;;5091789;28;20019;-76
2021/05/17 10:22:48;;;;;;;0.88;0.60;;;19.90;99.90;;;;;;5090933;28;20390;-76
2021/05/17 10:25:21;;;;;;;0.60;0.60;;;19.80;97.90;;;;;;5091092;28;20161;-77
2021/05/17 10:27:50;;;;;;;0.95;0.70;;;19.80;98.80;;;;;;5072920;28;20031;-76
2021/05/17 10:30:31;;;;;;;1.27;1.10;;;19.80;98.90;;;;;;5090777;28;20497;-76
2021/05/17 10:32:59;;;;;;;0.82;0.40;;;19.60;98.10;;;;;;5090852;28;20046;-78
2021/05/17 10:35:28;;;;;;;0.50;0.50;;;19.40;97.50;;;;;;5071930;28;20143;-77
2021/05/17 10:39:03;;;;;;;0.45;0.45;;;19.30;97.10;;;;;;5090494;28;20031;-76
2021/05/17 10:41:18;;;;;;;0.50;0.50;;;19.10;97.30;;;;;;5082030;28;20024;-77
2021/05/17 10:46:51;;;;;;;0.50;0.50;;;19.50;98.10;;;;;;5090004;28;20319;-78
2021/05/17 10:49:26;;;;;;;0.73;0.60;;;19.70;97.20;;;;;;5091013;28;20061;-78
2021/05/17 10:51:55;;;;;;;1.23;0.60;;;19.80;98.10;;;;;;5090506;28;20115;-78
2021/05/17 10:54:59;;;;;;;0.32;0.32;;;19.70;97.90;;;;;;5090120;28;20028;-78
2021/05/17 10:57:40;;;;;;;2.17;0.50;;;19.60;96.70;;;;;;4987937;28;20033;-76
2021/05/17 11:00:24;;;;;;;0.28;0.28;;;19.70;96.80;;;;;;5081758;28;20028;-76
2021/05/17 11:03:08;;;;;;;0.35;0.35;;;20.00;96.60;;;;;;5089712;28;20105;-76
2021/05/17 11:05:34;;;;;;;0.50;0.40;;;20.40;95.70;;;;;;5090023;28;20024;-77
2021/05/17 11:08:05;;;;;;;0.90;0.52;;;20.60;94.80;;;;;;5089828;28;20020;-77
2021/05/17 11:10:45;;;;;;;1.02;0.30;;;20.70;95.10;;;;;;5090527;28;20066;-76
2021/05/17 11:13:21;;;;;;;0.20;0.20;;;20.80;93.30;;;;;;5090283;28;20024;-76
2021/05/17 11:16:00;;;;;;;0.20;0.20;;;21.00;93.50;;;;;;5090457;28;20024;-76
2021/05/17 11:18:36;;;;;;;0.20;0.20;;;21.00;92.50;;;;;;5090289;28;20028;-76
2021/05/17 11:21:27;;;;;;;0.50;0.50;;;20.80;91.40;;;;;;5089568;28;20036;-77
2021/05/17 11:23:55;;;;;;;0.32;0.32;;;20.50;92.30;;;;;;5088088;28;20389;-76
2021/05/17 11:26:24;;;;;;;0.20;0.20;;;20.30;90.50;;;;;;5072162;28;20161;-76
2021/05/17 11:28:52;;;;;;;0.30;0.30;;;20.30;92.10;;;;;;5092385;28;20059;-76
2021/05/17 11:34:02;;;;;;;0.25;0.25;;;20.10;91.00;;;;;;5092115;28;20024;-76
2021/05/17 11:36:29;;;;;;;1.88;0.55;;;19.90;86.20;;;;;;5070534;28;20098;-76
2021/05/17 11:39:04;;;;;;;3.40;0.63;;;19.50;85.60;;;;;;5072454;28;20035;-77
2021/05/17 11:41:31;;;;;;;0.45;0.22;;;19.30;88.70;;;;;;5072261;28;20012;-77
2021/05/17 11:44:02;;;;;;;0.32;0.32;;;19.00;89.50;;;;;;5071401;28;20107;-76
2021/05/17 11:46:30;;;;;;;0.35;0.30;;;18.80;90.80;;;;;;5071746;28;20031;-76
2021/05/17 11:48:56;;;;;;;0.30;0.30;;;18.80;91.50;;;;;;5072215;28;20032;-77
2021/05/17 11:51:26;;;;;;;1.63;0.30;;;19.00;91.30;;;;;;5069163;28;20121;-76
2021/05/17 11:53:54;;;;;;;0.47;0.40;;;19.10;91.40;;;;;;5071426;28;20029;-76
2021/05/17 11:56:21;;;;;;;0.28;0.20;;;19.40;92.20;;;;;;5070730;28;20035;-76
2021/05/17 11:59:11;;;;;;;0.90;0.40;;;19.60;92.00;;;;;;5069950;28;20078;-76
2021/05/17 12:01:39;;;;;;;0.30;0.30;;;19.90;88.70;;;;;;5071660;28;20021;-76
2021/05/17 12:04:17;;;;;;;3.45;0.43;;;20.10;88.80;;;;;;5069822;28;20115;-76
2021/05/17 12:06:48;;;;;;;3.67;0.80;;;20.50;90.10;;;;;;5070882;28;20028;-76
2021/05/17 12:09:35;;;;;;;0.70;0.50;;;20.60;90.50;;;;;;5070987;28;20376;-76
2021/05/17 12:12:11;;;;;;;2.53;0.32;;;20.80;90.00;;;;;;5054925;28;20032;-76
2021/05/17 12:14:41;;;;;;;0.30;0.30;;;21.00;90.00;;;;;;5070414;28;20717;-76
2021/05/17 12:17:15;;;;;;;0.32;0.32;;;20.90;88.80;;;;;;5070758;28;20082;-76
2021/05/17 12:19:44;;;;;;;1.25;0.50;;;21.10;89.20;;;;;;5069887;28;20028;-76
2021/05/17 12:22:33;;;;;;;0.75;0.30;;;21.20;89.50;;;;;;5070464;28;20658;-76
2021/05/17 12:25:01;;;;;;;1.17;0.40;;;21.40;86.20;;;;;;5069669;28;20514;-76
2021/05/17 12:27:28;;;;;;;0.55;0.40;;;21.60;87.50;;;;;;5070945;28;20051;-76
2021/05/17 12:29:56;;;;;;;0.60;0.40;;;21.90;85.60;;;;;;5070570;28;20028;-76
2021/05/17 12:32:37;;;;;;;4.53;0.60;;;22.00;84.70;;;;;;5070740;28;20463;-76
2021/05/17 12:35:07;;;;;;;0.40;0.30;;;22.20;84.00;;;;;;5074523;28;20512;-76
2021/05/17 12:37:37;;;;;;;3.65;0.80;;;22.30;86.20;;;;;;5090136;28;20028;-76
2021/05/17 12:40:18;;;;;;;0.80;0.80;;;22.40;86.20;;;;;;5069112;28;20099;-76
2021/05/17 12:42:44;;;;;;;1.20;1.20;;;22.50;86.50;;;;;;5088518;28;20024;-76
2021/05/17 12:45:13;;;;;;;3.88;1.30;;;22.40;81.40;;;;;;5088093;28;20055;-76
2021/05/17 12:47:43;;;;;;;1.38;1.30;;;22.40;85.50;;;;;;5088184;28;20035;-76
2021/05/17 12:50:20;;;;;;;1.10;1.10;;;22.20;82.60;;;;;;5088558;28;20044;-76
2021/05/17 12:52:47;;;;;;;1.08;0.93;;;22.10;83.20;;;;;;5088021;28;20020;-76
2021/05/17 12:55:22;;;;;;;1.35;1.10;;;21.90;83.50;;;;;;5087801;28;20081;-76
2021/05/17 12:57:59;;;;;;;1.20;1.10;;;21.80;81.90;;;;;;5087342;28;20442;-76
2021/05/17 13:00:41;;;;;;;1.00;1.00;;;21.60;84.50;;;;;;5069176;28;20024;-76
2021/05/17 13:03:14;;;;;;;0.88;0.80;;;21.50;85.20;;;;;;5087526;28;20377;-76
2021/05/17 13:06:01;;;;;;;2.13;1.90;;;21.40;86.40;;;;;;5087738;28;20024;-76
2021/05/17 13:08:46;;;;;;;1.58;1.48;;;21.40;86.30;;;;;;5087484;28;20024;-76
2021/05/17 13:11:28;;;;;;;3.97;2.33;;;21.40;87.00;;;;;;5087889;28;20085;-76
2021/05/17 13:14:04;;;;;;;1.60;1.50;;;21.30;86.10;;;;;;5088276;28;20020;-76
2021/05/17 13:16:49;;;;;;;1.65;1.55;;;21.30;88.20;;;;;;5087930;28;20221;-76
2021/05/17 13:33:05;;;;;;;1.05;0.80;;;22.30;78.00;;;;;;5087001;28;20032;-76
2021/05/17 13:35:31;;;;;;;4.65;0.82;;;22.50;78.00;;;;;;5088009;28;20075;-76
2021/05/17 13:37:57;;;;;;;0.68;0.68;;;22.80;76.40;;;;;;5068804;28;20066;-76
2021/05/17 13:40:24;;;;;;;4.10;0.80;;;22.80;72.10;;;;;;5068969;28;20024;-76